sensor_id;sensor_type;location;lat;lon;timestamp;temperature;humidity
64705;DHT22;51131;52.298;13.686;2023-03-14T00:00:40;17.60;65.30
64705;DHT22;51131;52.298;13.686;2023-03-14T00:03:06;17.30;66.70
64705;DHT22;51131;52.298;13.686;2023-03-14T00:05:33;17.30;67.10
64705;DHT22;51131;52.298;13.686;2023-03-14T00:08:00;17.30;66.40
64705;DHT22;51131;52.298;13.686;2023-03-14T00:10:26;17.30;67.00
64705;DHT22;51131;52.298;13.686;2023-03-14T00:12:53;17.30;67.40
64705;DHT22;51131;52.298;13.686;2023-03-14T00:15:20;17.30;66.60
64705;DHT22;51131;52.298;13.686;2023-03-14T00:17:46;17.30;66.80
64705;DHT22;51131;52.298;13.686;2023-03-14T00:20:13;17.60;65.10
64705;DHT22;51131;52.298;13.686;2023-03-14T00:22:40;17.30;63.60
64705;DHT22;51131;52.298;13.686;2023-03-14T00:25:08;17.30;64.30
64705;DHT22;51131;52.298;13.686;2023-03-14T00:27:35;17.30;64.80
64705;DHT22;51131;52.298;13.686;2023-03-14T00:30:01;17.40;64.30
64705;DHT22;51131;52.298;13.686;2023-03-14T00:32:29;17.30;67.40
64705;DHT22;51131;52.298;13.686;2023-03-14T00:34:56;17.30;64.50
64705;DHT22;51131;52.298;13.686;2023-03-14T00:37:22;17.30;66.40
64705;DHT22;51131;52.298;13.686;2023-03-14T00:39:51;17.50;64.70
64705;DHT22;51131;52.298;13.686;2023-03-14T00:42:17;17.30;66.20
64705;DHT22;51131;52.298;13.686;2023-03-14T00:44:44;17.30;64.50
64705;DHT22;51131;52.298;13.686;2023-03-14T00:47:11;17.20;63.00
64705;DHT22;51131;52.298;13.686;2023-03-14T00:49:37;17.30;63.60
64705;DHT22;51131;52.298;13.686;2023-03-14T00:52:04;17.30;64.70
64705;DHT22;51131;52.298;13.686;2023-03-14T00:54:30;17.30;66.00
64705;DHT22;51131;52.298;13.686;2023-03-14T00:56:57;17.80;65.80
64705;DHT22;51131;52.298;13.686;2023-03-14T00:59:24;17.30;65.90
64705;DHT22;51131;52.298;13.686;2023-03-14T01:01:50;17.30;64.70
64705;DHT22;51131;52.298;13.686;2023-03-14T01:04:17;17.30;64.70
64705;DHT22;51131;52.298;13.686;2023-03-14T01:06:44;17.70;64.70
64705;DHT22;51131;52.298;13.686;2023-03-14T01:09:10;17.30;63.00
64705;DHT22;51131;52.298;13.686;2023-03-14T01:11:37;17.70;63.20
64705;DHT22;51131;52.298;13.686;2023-03-14T01:14:03;17.30;63.50
64705;DHT22;51131;52.298;13.686;2023-03-14T01:16:31;17.20;62.90
64705;DHT22;51131;52.298;13.686;2023-03-14T01:18:58;17.30;63.30
64705;DHT22;51131;52.298;13.686;2023-03-14T01:21:26;17.30;62.70
64705;DHT22;51131;52.298;13.686;2023-03-14T01:23:54;17.30;62.90
64705;DHT22;51131;52.298;13.686;2023-03-14T01:26:21;18.10;63.90
64705;DHT22;51131;52.298;13.686;2023-03-14T01:28:49;17.30;62.90
64705;DHT22;51131;52.298;13.686;2023-03-14T01:31:16;17.30;62.50
64705;DHT22;51131;52.298;13.686;2023-03-14T01:33:43;17.80;63.60
64705;DHT22;51131;52.298;13.686;2023-03-14T01:36:10;17.30;62.60
64705;DHT22;51131;52.298;13.686;2023-03-14T01:38:37;17.30;63.50
64705;DHT22;51131;52.298;13.686;2023-03-14T01:41:04;17.40;64.50
64705;DHT22;51131;52.298;13.686;2023-03-14T01:43:31;17.50;66.00
64705;DHT22;51131;52.298;13.686;2023-03-14T01:48:25;17.50;67.40
64705;DHT22;51131;52.298;13.686;2023-03-14T01:50:52;17.50;66.90
64705;DHT22;51131;52.298;13.686;2023-03-14T01:53:19;17.50;67.50
64705;DHT22;51131;52.298;13.686;2023-03-14T01:55:48;17.50;67.00
64705;DHT22;51131;52.298;13.686;2023-03-14T01:58:14;17.40;67.20
64705;DHT22;51131;52.298;13.686;2023-03-14T02:00:42;17.40;66.90
64705;DHT22;51131;52.298;13.686;2023-03-14T02:03:10;17.40;66.70
64705;DHT22;51131;52.298;13.686;2023-03-14T02:05:38;17.90;67.60
64705;DHT22;51131;52.298;13.686;2023-03-14T02:08:05;17.40;64.20
64705;DHT22;51131;52.298;13.686;2023-03-14T02:10:55;17.90;65.60
64705;DHT22;51131;52.298;13.686;2023-03-14T02:13:20;17.40;66.50
64705;DHT22;51131;52.298;13.686;2023-03-14T02:15:47;17.70;67.20
64705;DHT22;51131;52.298;13.686;2023-03-14T02:18:14;17.40;66.60
64705;DHT22;51131;52.298;13.686;2023-03-14T02:21:04;17.40;66.00
64705;DHT22;51131;52.298;13.686;2023-03-14T02:23:36;17.40;66.40
64705;DHT22;51131;52.298;13.686;2023-03-14T02:26:11;17.40;67.00
64705;DHT22;51131;52.298;13.686;2023-03-14T02:28:39;17.30;63.10
64705;DHT22;51131;52.298;13.686;2023-03-14T02:31:06;17.30;64.10
64705;DHT22;51131;52.298;13.686;2023-03-14T02:33:35;17.40;66.40
64705;DHT22;51131;52.298;13.686;2023-03-14T02:36:04;17.60;67.20
64705;DHT22;51131;52.298;13.686;2023-03-14T02:41:04;17.40;66.50
64705;DHT22;51131;52.298;13.686;2023-03-14T02:43:30;17.40;65.80
64705;DHT22;51131;52.298;13.686;2023-03-14T02:45:57;17.20;65.40
64705;DHT22;51131;52.298;13.686;2023-03-14T02:48:25;17.40;66.30
64705;DHT22;51131;52.298;13.686;2023-03-14T02:50:54;17.40;63.40
64705;DHT22;51131;52.298;13.686;2023-03-14T02:53:31;17.30;62.80
64705;DHT22;51131;52.298;13.686;2023-03-14T02:55:58;17.30;63.10
64705;DHT22;51131;52.298;13.686;2023-03-14T02:58:25;17.40;64.70
64705;DHT22;51131;52.298;13.686;2023-03-14T03:00:51;17.70;65.80
64705;DHT22;51131;52.298;13.686;2023-03-14T03:03:18;17.30;65.80
64705;DHT22;51131;52.298;13.686;2023-03-14T03:05:49;17.40;65.40
64705;DHT22;51131;52.298;13.686;2023-03-14T03:08:17;17.40;66.40
64705;DHT22;51131;52.298;13.686;2023-03-14T03:10:44;17.40;64.90
64705;DHT22;51131;52.298;13.686;2023-03-14T03:13:10;17.40;64.90
64705;DHT22;51131;52.298;13.686;2023-03-14T03:15:37;17.30;62.90
64705;DHT22;51131;52.298;13.686;2023-03-14T03:18:04;17.30;62.60
64705;DHT22;51131;52.298;13.686;2023-03-14T03:20:30;17.30;64.40
64705;DHT22;51131;52.298;13.686;2023-03-14T03:22:58;17.30;65.00
64705;DHT22;51131;52.298;13.686;2023-03-14T03:25:25;17.30;64.30
64705;DHT22;51131;52.298;13.686;2023-03-14T03:27:51;17.30;64.60
64705;DHT22;51131;52.298;13.686;2023-03-14T03:30:18;17.30;63.60
64705;DHT22;51131;52.298;13.686;2023-03-14T03:32:45;17.40;64.80
64705;DHT22;51131;52.298;13.686;2023-03-14T03:35:11;17.30;64.40
64705;DHT22;51131;52.298;13.686;2023-03-14T03:37:38;17.30;62.30
64705;DHT22;51131;52.298;13.686;2023-03-14T03:40:06;17.30;62.30
64705;DHT22;51131;52.298;13.686;2023-03-14T03:42:33;17.30;63.70
64705;DHT22;51131;52.298;13.686;2023-03-14T03:45:00;17.40;64.60
64705;DHT22;51131;52.298;13.686;2023-03-14T03:47:26;17.30;64.50
64705;DHT22;51131;52.298;13.686;2023-03-14T03:49:53;17.30;64.10
64705;DHT22;51131;52.298;13.686;2023-03-14T03:52:20;17.30;63.30
64705;DHT22;51131;52.298;13.686;2023-03-14T03:54:47;17.30;65.30
64705;DHT22;51131;52.298;13.686;2023-03-14T03:57:13;17.60;65.20
64705;DHT22;51131;52.298;13.686;2023-03-14T03:59:40;17.30;62.10
64705;DHT22;51131;52.298;13.686;2023-03-14T04:02:07;17.30;63.10
64705;DHT22;51131;52.298;13.686;2023-03-14T04:04:34;17.30;63.50
64705;DHT22;51131;52.298;13.686;2023-03-14T04:07:01;17.30;63.80
64705;DHT22;51131;52.298;13.686;2023-03-14T04:09:27;17.30;65.10
64705;DHT22;51131;52.298;13.686;2023-03-14T04:11:54;17.30;64.00
64705;DHT22;51131;52.298;13.686;2023-03-14T04:14:21;17.30;64.60
64705;DHT22;51131;52.298;13.686;2023-03-14T04:16:47;17.30;65.80
64705;DHT22;51131;52.298;13.686;2023-03-14T04:19:14;17.40;64.50
64705;DHT22;51131;52.298;13.686;2023-03-14T04:21:41;17.30;62.70
64705;DHT22;51131;52.298;13.686;2023-03-14T04:24:11;17.30;62.40
64705;DHT22;51131;52.298;13.686;2023-03-14T04:26:37;17.30;62.90
64705;DHT22;51131;52.298;13.686;2023-03-14T04:29:04;17.30;62.10
64705;DHT22;51131;52.298;13.686;2023-03-14T04:31:31;17.30;62.10
64705;DHT22;51131;52.298;13.686;2023-03-14T04:33:58;17.90;63.60
64705;DHT22;51131;52.298;13.686;2023-03-14T04:36:24;17.40;63.50
64705;DHT22;51131;52.298;13.686;2023-03-14T04:38:51;17.50;64.80
64705;DHT22;51131;52.298;13.686;2023-03-14T04:41:17;17.70;65.60
64705;DHT22;51131;52.298;13.686;2023-03-14T04:43:44;17.50;64.80
64705;DHT22;51131;52.298;13.686;2023-03-14T04:46:10;17.50;65.90
64705;DHT22;51131;52.298;13.686;2023-03-14T04:48:37;17.50;66.20
64705;DHT22;51131;52.298;13.686;2023-03-14T04:51:04;17.50;66.30
64705;DHT22;51131;52.298;13.686;2023-03-14T04:53:31;17.40;65.50
64705;DHT22;51131;52.298;13.686;2023-03-14T04:55:58;18.10;66.10
64705;DHT22;51131;52.298;13.686;2023-03-14T04:58:25;17.40;64.90
64705;DHT22;51131;52.298;13.686;2023-03-14T05:00:51;17.60;65.90
64705;DHT22;51131;52.298;13.686;2023-03-14T05:03:18;17.40;63.50
64705;DHT22;51131;52.298;13.686;2023-03-14T05:05:45;17.40;64.50
64705;DHT22;51131;52.298;13.686;2023-03-14T05:08:12;17.70;65.60
64705;DHT22;51131;52.298;13.686;2023-03-14T05:10:39;17.40;64.60
64705;DHT22;51131;52.298;13.686;2023-03-14T05:13:05;17.40;64.70
64705;DHT22;51131;52.298;13.686;2023-03-14T05:15:32;17.40;63.50
64705;DHT22;51131;52.298;13.686;2023-03-14T05:17:58;17.40;62.40
64705;DHT22;51131;52.298;13.686;2023-03-14T05:20:25;17.40;61.80
64705;DHT22;51131;52.298;13.686;2023-03-14T05:22:52;17.40;62.50
64705;DHT22;51131;52.298;13.686;2023-03-14T05:25:18;17.30;62.20
64705;DHT22;51131;52.298;13.686;2023-03-14T05:27:45;17.30;61.60
64705;DHT22;51131;52.298;13.686;2023-03-14T05:30:12;17.30;61.90
64705;DHT22;51131;52.298;13.686;2023-03-14T05:32:38;17.40;62.20
64705;DHT22;51131;52.298;13.686;2023-03-14T05:35:05;17.30;61.70
64705;DHT22;51131;52.298;13.686;2023-03-14T05:37:32;17.30;61.60
64705;DHT22;51131;52.298;13.686;2023-03-14T05:39:58;17.90;62.70
64705;DHT22;51131;52.298;13.686;2023-03-14T05:42:25;17.90;62.40
64705;DHT22;51131;52.298;13.686;2023-03-14T05:44:51;17.30;62.30
64705;DHT22;51131;52.298;13.686;2023-03-14T05:47:18;17.30;62.40
64705;DHT22;51131;52.298;13.686;2023-03-14T05:49:45;17.30;61.70
64705;DHT22;51131;52.298;13.686;2023-03-14T05:52:11;17.30;61.80
64705;DHT22;51131;52.298;13.686;2023-03-14T05:54:38;17.30;61.20
64705;DHT22;51131;52.298;13.686;2023-03-14T05:57:04;17.30;61.70
64705;DHT22;51131;52.298;13.686;2023-03-14T05:59:31;17.30;61.70
64705;DHT22;51131;52.298;13.686;2023-03-14T06:01:57;17.20;62.20
64705;DHT22;51131;52.298;13.686;2023-03-14T06:04:24;17.20;62.20
64705;DHT22;51131;52.298;13.686;2023-03-14T06:06:51;17.20;62.30
64705;DHT22;51131;52.298;13.686;2023-03-14T06:09:17;17.20;62.10
64705;DHT22;51131;52.298;13.686;2023-03-14T06:11:46;17.30;61.80
64705;DHT22;51131;52.298;13.686;2023-03-14T06:14:12;17.70;62.40
64705;DHT22;51131;52.298;13.686;2023-03-14T06:16:39;17.30;61.60
64705;DHT22;51131;52.298;13.686;2023-03-14T06:19:06;17.30;62.00
64705;DHT22;51131;52.298;13.686;2023-03-14T06:21:32;17.20;61.70
64705;DHT22;51131;52.298;13.686;2023-03-14T06:23:59;17.20;61.80
64705;DHT22;51131;52.298;13.686;2023-03-14T06:26:26;17.20;61.50
64705;DHT22;51131;52.298;13.686;2023-03-14T06:28:52;17.20;61.50
64705;DHT22;51131;52.298;13.686;2023-03-14T06:31:20;17.20;61.50
64705;DHT22;51131;52.298;13.686;2023-03-14T06:33:46;17.20;61.60
64705;DHT22;51131;52.298;13.686;2023-03-14T06:36:13;17.20;61.60
64705;DHT22;51131;52.298;13.686;2023-03-14T06:38:40;17.20;61.20
64705;DHT22;51131;52.298;13.686;2023-03-14T06:41:07;17.20;61.30
64705;DHT22;51131;52.298;13.686;2023-03-14T06:43:33;17.20;61.80
64705;DHT22;51131;52.298;13.686;2023-03-14T06:46:00;17.20;61.50
64705;DHT22;51131;52.298;13.686;2023-03-14T06:48:27;17.20;61.40
64705;DHT22;51131;52.298;13.686;2023-03-14T06:50:53;17.30;61.50
64705;DHT22;51131;52.298;13.686;2023-03-14T06:53:20;17.30;61.40
64705;DHT22;51131;52.298;13.686;2023-03-14T06:55:47;17.30;61.30
64705;DHT22;51131;52.298;13.686;2023-03-14T06:58:13;17.20;61.40
64705;DHT22;51131;52.298;13.686;2023-03-14T07:00:40;17.30;61.30
64705;DHT22;51131;52.298;13.686;2023-03-14T07:03:07;17.30;61.30
64705;DHT22;51131;52.298;13.686;2023-03-14T07:05:34;17.40;61.80
64705;DHT22;51131;52.298;13.686;2023-03-14T07:08:01;17.40;62.20
64705;DHT22;51131;52.298;13.686;2023-03-14T07:10:27;17.40;62.20
64705;DHT22;51131;52.298;13.686;2023-03-14T07:12:54;17.50;62.70
64705;DHT22;51131;52.298;13.686;2023-03-14T07:15:20;17.60;62.00
64705;DHT22;51131;52.298;13.686;2023-03-14T07:17:47;17.60;62.70
64705;DHT22;51131;52.298;13.686;2023-03-14T07:20:17;17.60;63.30
64705;DHT22;51131;52.298;13.686;2023-03-14T07:22:44;17.60;62.90
64705;DHT22;51131;52.298;13.686;2023-03-14T07:25:13;17.60;63.10
64705;DHT22;51131;52.298;13.686;2023-03-14T07:27:39;17.50;62.40
64705;DHT22;51131;52.298;13.686;2023-03-14T07:30:06;17.50;63.20
64705;DHT22;51131;52.298;13.686;2023-03-14T07:32:33;17.50;62.40
64705;DHT22;51131;52.298;13.686;2023-03-14T07:34:59;17.50;61.70
64705;DHT22;51131;52.298;13.686;2023-03-14T07:37:26;17.50;61.50
64705;DHT22;51131;52.298;13.686;2023-03-14T07:39:52;17.50;61.20
64705;DHT22;51131;52.298;13.686;2023-03-14T07:42:19;17.50;61.60
64705;DHT22;51131;52.298;13.686;2023-03-14T07:44:46;17.50;61.20
64705;DHT22;51131;52.298;13.686;2023-03-14T07:47:13;17.50;61.10
64705;DHT22;51131;52.298;13.686;2023-03-14T07:49:39;17.40;60.90
64705;DHT22;51131;52.298;13.686;2023-03-14T07:52:06;17.40;60.60
64705;DHT22;51131;52.298;13.686;2023-03-14T07:54:33;17.40;61.20
64705;DHT22;51131;52.298;13.686;2023-03-14T07:56:59;17.50;61.10
64705;DHT22;51131;52.298;13.686;2023-03-14T07:59:27;17.40;61.00
64705;DHT22;51131;52.298;13.686;2023-03-14T08:01:54;17.40;60.90
64705;DHT22;51131;52.298;13.686;2023-03-14T08:04:20;17.40;61.30
64705;DHT22;51131;52.298;13.686;2023-03-14T08:06:47;17.40;61.70
64705;DHT22;51131;52.298;13.686;2023-03-14T08:09:14;17.40;61.20
64705;DHT22;51131;52.298;13.686;2023-03-14T08:11:40;17.40;61.20
64705;DHT22;51131;52.298;13.686;2023-03-14T08:14:07;17.40;61.70
64705;DHT22;51131;52.298;13.686;2023-03-14T08:16:33;17.40;61.60
64705;DHT22;51131;52.298;13.686;2023-03-14T08:19:00;17.40;61.40
64705;DHT22;51131;52.298;13.686;2023-03-14T08:21:27;17.40;61.40
64705;DHT22;51131;52.298;13.686;2023-03-14T08:23:53;17.40;61.30
64705;DHT22;51131;52.298;13.686;2023-03-14T08:26:20;17.40;61.40
64705;DHT22;51131;52.298;13.686;2023-03-14T08:28:47;17.40;62.00
64705;DHT22;51131;52.298;13.686;2023-03-14T08:31:13;17.50;61.80
64705;DHT22;51131;52.298;13.686;2023-03-14T08:33:41;17.40;60.80
64705;DHT22;51131;52.298;13.686;2023-03-14T08:36:07;17.40;60.70
64705;DHT22;51131;52.298;13.686;2023-03-14T08:38:34;17.40;61.00
64705;DHT22;51131;52.298;13.686;2023-03-14T08:41:03;17.40;62.10
64705;DHT22;51131;52.298;13.686;2023-03-14T08:43:30;17.40;61.60
64705;DHT22;51131;52.298;13.686;2023-03-14T08:45:57;17.40;61.70
64705;DHT22;51131;52.298;13.686;2023-03-14T08:48:24;17.40;61.90
64705;DHT22;51131;52.298;13.686;2023-03-14T08:50:50;17.40;61.30
64705;DHT22;51131;52.298;13.686;2023-03-14T08:53:17;17.40;60.80
64705;DHT22;51131;52.298;13.686;2023-03-14T08:55:45;17.40;60.80
64705;DHT22;51131;52.298;13.686;2023-03-14T08:58:11;17.40;61.20
64705;DHT22;51131;52.298;13.686;2023-03-14T09:00:38;17.40;61.50
64705;DHT22;51131;52.298;13.686;2023-03-14T09:03:05;17.40;60.80
64705;DHT22;51131;52.298;13.686;2023-03-14T09:05:32;17.40;60.70
64705;DHT22;51131;52.298;13.686;2023-03-14T09:07:59;17.40;60.90
64705;DHT22;51131;52.298;13.686;2023-03-14T09:10:26;17.40;60.60
64705;DHT22;51131;52.298;13.686;2023-03-14T09:12:53;17.40;61.50
64705;DHT22;51131;52.298;13.686;2023-03-14T09:15:19;17.40;62.20
64705;DHT22;51131;52.298;13.686;2023-03-14T09:17:46;17.40;61.70
64705;DHT22;51131;52.298;13.686;2023-03-14T09:20:13;17.40;61.30
64705;DHT22;51131;52.298;13.686;2023-03-14T09:22:40;17.40;61.70
64705;DHT22;51131;52.298;13.686;2023-03-14T09:25:07;17.40;61.60
64705;DHT22;51131;52.298;13.686;2023-03-14T09:27:34;17.40;60.90
64705;DHT22;51131;52.298;13.686;2023-03-14T09:30:01;17.40;60.90
64705;DHT22;51131;52.298;13.686;2023-03-14T09:32:27;17.40;61.90
64705;DHT22;51131;52.298;13.686;2023-03-14T09:34:54;17.40;61.20
64705;DHT22;51131;52.298;13.686;2023-03-14T09:37:20;17.40;62.30
64705;DHT22;51131;52.298;13.686;2023-03-14T09:39:47;17.40;61.70
64705;DHT22;51131;52.298;13.686;2023-03-14T09:42:14;17.40;61.50
64705;DHT22;51131;52.298;13.686;2023-03-14T09:47:42;17.40;61.50
64705;DHT22;51131;52.298;13.686;2023-03-14T09:50:24;17.60;61.40
64705;DHT22;51131;52.298;13.686;2023-03-14T09:52:53;17.50;61.90
64705;DHT22;51131;52.298;13.686;2023-03-14T09:55:22;17.60;61.30
64705;DHT22;51131;52.298;13.686;2023-03-14T09:57:49;17.60;61.50
64705;DHT22;51131;52.298;13.686;2023-03-14T10:00:21;17.60;61.50
64705;DHT22;51131;52.298;13.686;2023-03-14T10:03:31;17.60;61.50
64705;DHT22;51131;52.298;13.686;2023-03-14T10:05:38;17.60;61.20
64705;DHT22;51131;52.298;13.686;2023-03-14T10:08:05;17.60;61.10
64705;DHT22;51131;52.298;13.686;2023-03-14T10:10:32;17.60;61.00
64705;DHT22;51131;52.298;13.686;2023-03-14T10:15:48;17.50;61.20
64705;DHT22;51131;52.298;13.686;2023-03-14T10:18:14;17.50;61.20
64705;DHT22;51131;52.298;13.686;2023-03-14T10:20:45;17.50;61.90
64705;DHT22;51131;52.298;13.686;2023-03-14T10:25:40;17.50;61.60
64705;DHT22;51131;52.298;13.686;2023-03-14T10:29:08;17.50;60.90
64705;DHT22;51131;52.298;13.686;2023-03-14T10:31:03;17.50;61.30
64705;DHT22;51131;52.298;13.686;2023-03-14T10:33:34;17.50;61.30
64705;DHT22;51131;52.298;13.686;2023-03-14T10:36:02;17.50;61.40
64705;DHT22;51131;52.298;13.686;2023-03-14T10:38:31;17.50;61.60
64705;DHT22;51131;52.298;13.686;2023-03-14T10:40:57;17.50;61.30
64705;DHT22;51131;52.298;13.686;2023-03-14T10:43:26;17.50;60.90
64705;DHT22;51131;52.298;13.686;2023-03-14T10:45:54;17.40;60.50
64705;DHT22;51131;52.298;13.686;2023-03-14T10:48:29;17.50;60.90
64705;DHT22;51131;52.298;13.686;2023-03-14T10:50:56;17.50;60.60
64705;DHT22;51131;52.298;13.686;2023-03-14T10:53:24;17.60;60.90
64705;DHT22;51131;52.298;13.686;2023-03-14T10:55:55;17.50;61.20
64705;DHT22;51131;52.298;13.686;2023-03-14T10:58:25;17.50;60.50
64705;DHT22;51131;52.298;13.686;2023-03-14T11:00:56;17.40;60.60
64705;DHT22;51131;52.298;13.686;2023-03-14T11:03:24;17.50;60.80
64705;DHT22;51131;52.298;13.686;2023-03-14T11:05:54;17.50;60.00
64705;DHT22;51131;52.298;13.686;2023-03-14T11:08:27;17.50;60.20
64705;DHT22;51131;52.298;13.686;2023-03-14T11:11:06;17.50;60.10
64705;DHT22;51131;52.298;13.686;2023-03-14T11:29:25;17.50;59.80
64705;DHT22;51131;52.298;13.686;2023-03-14T11:31:55;17.50;60.30
64705;DHT22;51131;52.298;13.686;2023-03-14T11:34:26;17.50;60.10
64705;DHT22;51131;52.298;13.686;2023-03-14T11:39:49;17.40;59.90
64705;DHT22;51131;52.298;13.686;2023-03-14T11:42:19;17.50;59.70
64705;DHT22;51131;52.298;13.686;2023-03-14T11:44:48;17.50;59.60
64705;DHT22;51131;52.298;13.686;2023-03-14T11:47:29;17.50;59.70
64705;DHT22;51131;52.298;13.686;2023-03-14T11:50:02;17.50;59.60
64705;DHT22;51131;52.298;13.686;2023-03-14T11:52:36;17.60;59.40
64705;DHT22;51131;52.298;13.686;2023-03-14T11:55:16;17.60;59.60
64705;DHT22;51131;52.298;13.686;2023-03-14T11:57:45;17.60;59.60
64705;DHT22;51131;52.298;13.686;2023-03-14T12:02:42;17.70;59.80
64705;DHT22;51131;52.298;13.686;2023-03-14T12:05:25;17.70;59.80
64705;DHT22;51131;52.298;13.686;2023-03-14T12:10:21;17.70;60.40
64705;DHT22;51131;52.298;13.686;2023-03-14T12:12:47;18.10;60.30
64705;DHT22;51131;52.298;13.686;2023-03-14T12:15:18;17.70;60.00
64705;DHT22;51131;52.298;13.686;2023-03-14T12:17:45;17.70;60.00
64705;DHT22;51131;52.298;13.686;2023-03-14T12:20:16;17.60;60.50
64705;DHT22;51131;52.298;13.686;2023-03-14T12:22:50;17.60;59.80
64705;DHT22;51131;52.298;13.686;2023-03-14T12:25:21;17.70;59.80
64705;DHT22;51131;52.298;13.686;2023-03-14T12:30:17;17.60;59.80
64705;DHT22;51131;52.298;13.686;2023-03-14T12:35:33;17.60;59.90
64705;DHT22;51131;52.298;13.686;2023-03-14T12:38:00;17.60;59.90
64705;DHT22;51131;52.298;13.686;2023-03-14T12:40:33;17.60;60.00
64705;DHT22;51131;52.298;13.686;2023-03-14T12:43:02;17.60;59.70
64705;DHT22;51131;52.298;13.686;2023-03-14T12:45:34;17.60;60.10
64705;DHT22;51131;52.298;13.686;2023-03-14T12:48:09;17.60;60.20
64705;DHT22;51131;52.298;13.686;2023-03-14T12:50:43;17.60;60.40
64705;DHT22;51131;52.298;13.686;2023-03-14T12:55:53;17.60;60.40
64705;DHT22;51131;52.298;13.686;2023-03-14T12:58:35;17.60;60.30
64705;DHT22;51131;52.298;13.686;2023-03-14T13:01:03;17.60;60.50
64705;DHT22;51131;52.298;13.686;2023-03-14T13:03:43;17.60;60.30
64705;DHT22;51131;52.298;13.686;2023-03-14T13:06:10;17.60;59.90
64705;DHT22;51131;52.298;13.686;2023-03-14T13:11:14;17.60;60.30
64705;DHT22;51131;52.298;13.686;2023-03-14T13:13:48;17.60;60.00
64705;DHT22;51131;52.298;13.686;2023-03-14T13:16:17;17.60;60.20
64705;DHT22;51131;52.298;13.686;2023-03-14T13:18:45;17.50;60.00
64705;DHT22;51131;52.298;13.686;2023-03-14T13:21:13;17.60;60.20
64705;DHT22;51131;52.298;13.686;2023-03-14T13:23:42;17.50;60.10
64705;DHT22;51131;52.298;13.686;2023-03-14T13:26:19;17.50;60.30
64705;DHT22;51131;52.298;13.686;2023-03-14T13:28:46;17.60;60.30
64705;DHT22;51131;52.298;13.686;2023-03-14T13:31:20;17.60;60.00
64705;DHT22;51131;52.298;13.686;2023-03-14T13:33:55;17.60;60.30
64705;DHT22;51131;52.298;13.686;2023-03-14T13:36:22;17.60;60.10
64705;DHT22;51131;52.298;13.686;2023-03-14T13:38:54;17.60;60.00
64705;DHT22;51131;52.298;13.686;2023-03-14T13:41:22;17.60;60.20
64705;DHT22;51131;52.298;13.686;2023-03-14T13:43:50;17.60;60.40
64705;DHT22;51131;52.298;13.686;2023-03-14T13:46:17;17.60;60.00
64705;DHT22;51131;52.298;13.686;2023-03-14T13:48:47;17.60;60.30
64705;DHT22;51131;52.298;13.686;2023-03-14T13:51:16;17.50;60.30
64705;DHT22;51131;52.298;13.686;2023-03-14T13:53:44;17.50;60.20
64705;DHT22;51131;52.298;13.686;2023-03-14T13:56:11;17.50;60.10
64705;DHT22;51131;52.298;13.686;2023-03-14T13:58:39;17.50;60.10
64705;DHT22;51131;52.298;13.686;2023-03-14T14:01:17;17.60;60.50
64705;DHT22;51131;52.298;13.686;2023-03-14T14:03:46;17.60;60.80
64705;DHT22;51131;52.298;13.686;2023-03-14T14:06:23;17.60;60.70
64705;DHT22;51131;52.298;13.686;2023-03-14T14:08:51;17.50;61.00
64705;DHT22;51131;52.298;13.686;2023-03-14T14:11:25;17.50;60.90
64705;DHT22;51131;52.298;13.686;2023-03-14T14:14:12;17.50;60.50
64705;DHT22;51131;52.298;13.686;2023-03-14T14:16:39;17.50;60.30
64705;DHT22;51131;52.298;13.686;2023-03-14T14:19:06;17.60;61.20
64705;DHT22;51131;52.298;13.686;2023-03-14T14:21:34;17.60;61.10
64705;DHT22;51131;52.298;13.686;2023-03-14T14:24:01;17.70;61.20
64705;DHT22;51131;52.298;13.686;2023-03-14T14:26:28;17.60;60.70
64705;DHT22;51131;52.298;13.686;2023-03-14T14:28:58;17.50;60.50
64705;DHT22;51131;52.298;13.686;2023-03-14T14:31:25;17.50;60.60
64705;DHT22;51131;52.298;13.686;2023-03-14T14:33:55;17.60;60.60
64705;DHT22;51131;52.298;13.686;2023-03-14T14:36:32;17.50;60.70
64705;DHT22;51131;52.298;13.686;2023-03-14T14:39:26;17.50;60.20
64705;DHT22;51131;52.298;13.686;2023-03-14T14:41:51;17.50;60.10
64705;DHT22;51131;52.298;13.686;2023-03-14T14:44:20;17.60;60.70
64705;DHT22;51131;52.298;13.686;2023-03-14T14:46:48;17.70;60.70
64705;DHT22;51131;52.298;13.686;2023-03-14T14:49:18;17.70;60.50
64705;DHT22;51131;52.298;13.686;2023-03-14T14:51:48;17.70;60.60
64705;DHT22;51131;52.298;13.686;2023-03-14T14:54:16;17.70;61.10
64705;DHT22;51131;52.298;13.686;2023-03-14T14:56:47;17.70;60.90
64705;DHT22;51131;52.298;13.686;2023-03-14T14:59:18;17.70;60.60
64705;DHT22;51131;52.298;13.686;2023-03-14T15:01:46;17.70;60.50
64705;DHT22;51131;52.298;13.686;2023-03-14T15:04:14;17.70;60.80
64705;DHT22;51131;52.298;13.686;2023-03-14T15:06:42;17.60;60.60
64705;DHT22;51131;52.298;13.686;2023-03-14T15:09:10;17.80;60.50
64705;DHT22;51131;52.298;13.686;2023-03-14T15:11:37;17.60;60.30
64705;DHT22;51131;52.298;13.686;2023-03-14T15:14:04;17.60;60.20
64705;DHT22;51131;52.298;13.686;2023-03-14T15:16:31;17.60;60.70
64705;DHT22;51131;52.298;13.686;2023-03-14T15:18:59;17.60;60.80
64705;DHT22;51131;52.298;13.686;2023-03-14T15:21:31;17.60;60.80
64705;DHT22;51131;52.298;13.686;2023-03-14T15:23:59;17.60;60.30
64705;DHT22;51131;52.298;13.686;2023-03-14T15:26:26;17.60;60.60
64705;DHT22;51131;52.298;13.686;2023-03-14T15:28:53;17.60;60.10
64705;DHT22;51131;52.298;13.686;2023-03-14T15:31:20;17.60;60.00
64705;DHT22;51131;52.298;13.686;2023-03-14T15:33:48;17.60;60.00
64705;DHT22;51131;52.298;13.686;2023-03-14T15:36:25;17.60;60.30
64705;DHT22;51131;52.298;13.686;2023-03-14T15:38:52;17.60;60.00
64705;DHT22;51131;52.298;13.686;2023-03-14T15:41:19;17.60;60.10
64705;DHT22;51131;52.298;13.686;2023-03-14T15:43:46;17.60;60.20
64705;DHT22;51131;52.298;13.686;2023-03-14T15:46:13;17.60;59.80
64705;DHT22;51131;52.298;13.686;2023-03-14T15:48:41;17.60;59.90
64705;DHT22;51131;52.298;13.686;2023-03-14T15:51:07;17.60;59.90
64705;DHT22;51131;52.298;13.686;2023-03-14T15:53:34;17.70;63.50
64705;DHT22;51131;52.298;13.686;2023-03-14T15:56:06;17.80;68.50
64705;DHT22;51131;52.298;13.686;2023-03-14T15:58:34;17.80;63.40
64705;DHT22;51131;52.298;13.686;2023-03-14T16:01:01;17.70;63.10
64705;DHT22;51131;52.298;13.686;2023-03-14T16:03:28;17.70;62.30
64705;DHT22;51131;52.298;13.686;2023-03-14T16:05:55;17.70;62.30
64705;DHT22;51131;52.298;13.686;2023-03-14T16:08:22;17.60;61.80